This is the latest recevied weather packets stored in our database for station/object PY2KO-3. If no packets are shown the sender has not sent any weather packets the latest 10 day(s).
| Time | Temp. | Humidity | Pressure | Rain* | Wind** | Luminosity | Snow |
|---|---|---|---|---|---|---|---|
| 1777657751 | 28.89° C | 54% | 1017.5 hPa | - | - | - | - |
| 1777656867 | 28.89° C | 54% | 1017.7 hPa | - | - | - | - |
| 1777655953 | 28.33° C | 55% | 1017.9 hPa | - | - | - | - |
| 1777655056 | 28.89° C | 55% | 1018.2 hPa | - | - | - | - |
| 1777654151 | 27.78° C | 57% | 1018.6 hPa | - | - | - | - |
| 1777653251 | 28.33° C | 55% | 1018.7 hPa | - | - | - | - |
| 1777652351 | 27.22° C | 58% | 1019.4 hPa | - | - | - | - |
| 1777651451 | 27.22° C | 59% | 1019.5 hPa | - | - | - | - |
| 1777650551 | 26.67° C | 58% | 1019.9 hPa | - | - | - | - |
| 1777649651 | 27.22° C | 58% | 1020 hPa | - | - | - | - |
| 1777646951 | 25.56° C | 64% | 1021.2 hPa | - | - | - | - |
| 1777646051 | 25.56° C | 63% | 1021.3 hPa | - | - | - | - |
| 1777645165 | 26.67° C | 63% | 1021.4 hPa | - | - | - | - |
| 1777644261 | 26.11° C | 65% | 1022 hPa | - | - | - | - |
| 1777643351 | 25° C | 67% | 1022.4 hPa | - | - | - | - |
| 1777642451 | 25° C | 66% | 1022.7 hPa | - | - | - | - |
| 1777641554 | 24.44° C | 67% | 1022.8 hPa | - | - | - | - |
| 1777640652 | 25° C | 67% | 1022.7 hPa | - | - | - | - |
| 1777639753 | 23.89° C | 69% | 1023.2 hPa | - | - | - | - |
| 1777638852 | 23.33° C | 72% | 1023.4 hPa | - | - | - | - |
| 1777637957 | 22.78° C | 73% | 1023.5 hPa | - | - | - | - |
| 1777637070 | 22.22° C | 75% | 1023.4 hPa | - | - | - | - |
| 1777636234 | 22.22° C | 77% | 1023.4 hPa | - | - | - | - |
| 1777633451 | 20.56° C | 85% | 1023.6 hPa | - | - | - | - |
| 1777632551 | 20° C | 86% | 1023.4 hPa | - | - | - | - |
* Rain since midnight (hover to see other rain measurements)
** Current wind speed in m/s (hover to see current wind gust speed)